sensor_id;sensor_type;location;lat;lon;timestamp;P1;durP1;ratioP1;P2;durP2;ratioP2
37280;SDS011;23169;41.804;12.596;2023-08-06T00:02:50;10.55;;;2.60;;
37280;SDS011;23169;41.804;12.596;2023-08-06T00:05:19;10.77;;;3.13;;
37280;SDS011;23169;41.804;12.596;2023-08-06T00:07:51;10.73;;;2.50;;
37280;SDS011;23169;41.804;12.596;2023-08-06T00:10:20;5.97;;;2.30;;
37280;SDS011;23169;41.804;12.596;2023-08-06T00:12:51;6.60;;;2.72;;
37280;SDS011;23169;41.804;12.596;2023-08-06T00:15:20;9.05;;;2.67;;
37280;SDS011;23169;41.804;12.596;2023-08-06T00:17:49;7.60;;;2.90;;
37280;SDS011;23169;41.804;12.596;2023-08-06T00:20:19;6.05;;;2.40;;
37280;SDS011;23169;41.804;12.596;2023-08-06T00:22:49;7.40;;;3.40;;
37280;SDS011;23169;41.804;12.596;2023-08-06T00:25:21;6.03;;;2.65;;
37280;SDS011;23169;41.804;12.596;2023-08-06T00:27:51;6.70;;;2.53;;
37280;SDS011;23169;41.804;12.596;2023-08-06T00:30:20;5.07;;;2.50;;
37280;SDS011;23169;41.804;12.596;2023-08-06T00:32:50;8.32;;;2.47;;
37280;SDS011;23169;41.804;12.596;2023-08-06T00:35:19;5.78;;;2.42;;
37280;SDS011;23169;41.804;12.596;2023-08-06T00:37:49;12.10;;;3.25;;
37280;SDS011;23169;41.804;12.596;2023-08-06T00:40:19;11.13;;;3.03;;
37280;SDS011;23169;41.804;12.596;2023-08-06T00:42:50;7.22;;;2.78;;
37280;SDS011;23169;41.804;12.596;2023-08-06T00:45:19;7.22;;;2.65;;
37280;SDS011;23169;41.804;12.596;2023-08-06T00:47:50;8.95;;;2.60;;
37280;SDS011;23169;41.804;12.596;2023-08-06T00:50:20;6.97;;;2.67;;
37280;SDS011;23169;41.804;12.596;2023-08-06T00:52:52;8.88;;;2.55;;
37280;SDS011;23169;41.804;12.596;2023-08-06T00:55:23;7.82;;;2.65;;
37280;SDS011;23169;41.804;12.596;2023-08-06T00:57:54;7.53;;;3.13;;
37280;SDS011;23169;41.804;12.596;2023-08-06T01:00:29;8.10;;;3.28;;
37280;SDS011;23169;41.804;12.596;2023-08-06T01:03:00;9.82;;;2.90;;
37280;SDS011;23169;41.804;12.596;2023-08-06T01:05:29;4.53;;;2.60;;
37280;SDS011;23169;41.804;12.596;2023-08-06T01:08:15;7.05;;;2.55;;
37280;SDS011;23169;41.804;12.596;2023-08-06T01:13:48;6.97;;;2.70;;
37280;SDS011;23169;41.804;12.596;2023-08-06T01:16:25;7.37;;;2.60;;
37280;SDS011;23169;41.804;12.596;2023-08-06T01:18:54;7.57;;;2.70;;
37280;SDS011;23169;41.804;12.596;2023-08-06T01:21:23;4.65;;;2.15;;
37280;SDS011;23169;41.804;12.596;2023-08-06T01:23:52;9.07;;;2.78;;
37280;SDS011;23169;41.804;12.596;2023-08-06T01:29:07;3.08;;;2.50;;
37280;SDS011;23169;41.804;12.596;2023-08-06T01:31:43;8.85;;;2.90;;
37280;SDS011;23169;41.804;12.596;2023-08-06T01:34:17;7.28;;;2.47;;
37280;SDS011;23169;41.804;12.596;2023-08-06T01:36:52;6.20;;;2.63;;
37280;SDS011;23169;41.804;12.596;2023-08-06T01:39:22;8.32;;;2.65;;
37280;SDS011;23169;41.804;12.596;2023-08-06T01:41:58;7.93;;;3.58;;
37280;SDS011;23169;41.804;12.596;2023-08-06T01:44:30;4.95;;;2.55;;
37280;SDS011;23169;41.804;12.596;2023-08-06T01:46:59;6.40;;;2.67;;
37280;SDS011;23169;41.804;12.596;2023-08-06T01:49:29;11.63;;;2.97;;
37280;SDS011;23169;41.804;12.596;2023-08-06T01:51:58;4.47;;;2.80;;
37280;SDS011;23169;41.804;12.596;2023-08-06T01:54:28;6.35;;;2.83;;
37280;SDS011;23169;41.804;12.596;2023-08-06T01:56:57;5.93;;;2.72;;
37280;SDS011;23169;41.804;12.596;2023-08-06T01:59:27;7.60;;;2.97;;
37280;SDS011;23169;41.804;12.596;2023-08-06T02:01:57;9.82;;;2.67;;
37280;SDS011;23169;41.804;12.596;2023-08-06T02:04:26;4.72;;;2.90;;
37280;SDS011;23169;41.804;12.596;2023-08-06T02:06:57;7.15;;;2.92;;
37280;SDS011;23169;41.804;12.596;2023-08-06T02:09:26;11.02;;;3.10;;
37280;SDS011;23169;41.804;12.596;2023-08-06T02:12:01;5.20;;;2.50;;
37280;SDS011;23169;41.804;12.596;2023-08-06T02:14:33;6.70;;;2.15;;
37280;SDS011;23169;41.804;12.596;2023-08-06T02:17:04;11.85;;;3.03;;
37280;SDS011;23169;41.804;12.596;2023-08-06T02:19:34;8.02;;;2.95;;
37280;SDS011;23169;41.804;12.596;2023-08-06T02:22:04;9.25;;;2.80;;
37280;SDS011;23169;41.804;12.596;2023-08-06T02:24:37;9.18;;;2.88;;
37280;SDS011;23169;41.804;12.596;2023-08-06T02:27:06;6.82;;;2.78;;
37280;SDS011;23169;41.804;12.596;2023-08-06T02:29:35;10.00;;;2.85;;
37280;SDS011;23169;41.804;12.596;2023-08-06T02:32:04;7.90;;;2.65;;
37280;SDS011;23169;41.804;12.596;2023-08-06T02:34:34;5.75;;;2.70;;
37280;SDS011;23169;41.804;12.596;2023-08-06T02:37:03;7.97;;;2.92;;
37280;SDS011;23169;41.804;12.596;2023-08-06T02:39:32;7.00;;;2.53;;
37280;SDS011;23169;41.804;12.596;2023-08-06T02:42:02;6.32;;;2.80;;
37280;SDS011;23169;41.804;12.596;2023-08-06T02:44:33;5.78;;;2.85;;
37280;SDS011;23169;41.804;12.596;2023-08-06T02:47:03;7.18;;;3.70;;
37280;SDS011;23169;41.804;12.596;2023-08-06T02:49:33;3.42;;;2.45;;
37280;SDS011;23169;41.804;12.596;2023-08-06T02:52:01;8.77;;;2.80;;
37280;SDS011;23169;41.804;12.596;2023-08-06T02:54:31;6.75;;;2.30;;
37280;SDS011;23169;41.804;12.596;2023-08-06T02:56:59;8.93;;;2.92;;
37280;SDS011;23169;41.804;12.596;2023-08-06T02:59:28;5.45;;;2.60;;
37280;SDS011;23169;41.804;12.596;2023-08-06T03:01:58;10.20;;;3.10;;
37280;SDS011;23169;41.804;12.596;2023-08-06T03:04:28;5.95;;;2.78;;
37280;SDS011;23169;41.804;12.596;2023-08-06T03:06:57;7.53;;;2.92;;
37280;SDS011;23169;41.804;12.596;2023-08-06T03:09:25;4.38;;;2.50;;
37280;SDS011;23169;41.804;12.596;2023-08-06T03:11:54;5.93;;;2.65;;
37280;SDS011;23169;41.804;12.596;2023-08-06T03:14:23;8.13;;;3.17;;
37280;SDS011;23169;41.804;12.596;2023-08-06T03:16:52;11.68;;;2.50;;
37280;SDS011;23169;41.804;12.596;2023-08-06T03:19:21;4.47;;;2.65;;
37280;SDS011;23169;41.804;12.596;2023-08-06T03:21:49;8.45;;;2.75;;
37280;SDS011;23169;41.804;12.596;2023-08-06T03:24:18;6.60;;;2.45;;
37280;SDS011;23169;41.804;12.596;2023-08-06T03:26:47;8.75;;;2.58;;
37280;SDS011;23169;41.804;12.596;2023-08-06T03:29:16;4.75;;;2.35;;
37280;SDS011;23169;41.804;12.596;2023-08-06T03:31:45;3.28;;;2.22;;
37280;SDS011;23169;41.804;12.596;2023-08-06T03:34:13;7.28;;;2.85;;
37280;SDS011;23169;41.804;12.596;2023-08-06T03:36:43;9.75;;;2.90;;
37280;SDS011;23169;41.804;12.596;2023-08-06T03:39:16;6.30;;;2.60;;
37280;SDS011;23169;41.804;12.596;2023-08-06T03:41:47;11.43;;;2.80;;
37280;SDS011;23169;41.804;12.596;2023-08-06T03:44:17;7.40;;;2.83;;
37280;SDS011;23169;41.804;12.596;2023-08-06T03:46:48;8.35;;;2.80;;
37280;SDS011;23169;41.804;12.596;2023-08-06T03:49:17;6.28;;;2.65;;
37280;SDS011;23169;41.804;12.596;2023-08-06T03:51:47;8.10;;;2.95;;
37280;SDS011;23169;41.804;12.596;2023-08-06T03:54:17;12.40;;;2.80;;
37280;SDS011;23169;41.804;12.596;2023-08-06T03:56:46;5.57;;;2.63;;
37280;SDS011;23169;41.804;12.596;2023-08-06T03:59:15;8.63;;;2.70;;
37280;SDS011;23169;41.804;12.596;2023-08-06T04:01:43;4.00;;;2.35;;
37280;SDS011;23169;41.804;12.596;2023-08-06T04:04:12;7.03;;;2.58;;
37280;SDS011;23169;41.804;12.596;2023-08-06T04:06:42;6.93;;;2.38;;
37280;SDS011;23169;41.804;12.596;2023-08-06T04:09:11;5.70;;;2.42;;
37280;SDS011;23169;41.804;12.596;2023-08-06T04:11:40;4.22;;;2.10;;
37280;SDS011;23169;41.804;12.596;2023-08-06T04:14:09;5.50;;;2.58;;
37280;SDS011;23169;41.804;12.596;2023-08-06T04:16:39;2.88;;;1.70;;
37280;SDS011;23169;41.804;12.596;2023-08-06T04:19:08;5.70;;;1.88;;
37280;SDS011;23169;41.804;12.596;2023-08-06T04:21:37;6.97;;;1.83;;
37280;SDS011;23169;41.804;12.596;2023-08-06T04:24:06;3.63;;;1.98;;
37280;SDS011;23169;41.804;12.596;2023-08-06T04:26:35;3.85;;;1.90;;
37280;SDS011;23169;41.804;12.596;2023-08-06T04:29:03;5.05;;;1.83;;
37280;SDS011;23169;41.804;12.596;2023-08-06T04:31:32;6.00;;;1.67;;
37280;SDS011;23169;41.804;12.596;2023-08-06T04:34:01;3.45;;;1.88;;
37280;SDS011;23169;41.804;12.596;2023-08-06T04:36:31;4.40;;;1.80;;
37280;SDS011;23169;41.804;12.596;2023-08-06T04:38:59;3.53;;;1.40;;
37280;SDS011;23169;41.804;12.596;2023-08-06T04:41:28;6.43;;;1.85;;
37280;SDS011;23169;41.804;12.596;2023-08-06T04:43:57;3.90;;;1.70;;
37280;SDS011;23169;41.804;12.596;2023-08-06T04:46:27;3.85;;;1.23;;
37280;SDS011;23169;41.804;12.596;2023-08-06T04:48:56;1.48;;;1.38;;
37280;SDS011;23169;41.804;12.596;2023-08-06T04:51:24;1.13;;;1.02;;
37280;SDS011;23169;41.804;12.596;2023-08-06T04:53:53;3.00;;;1.40;;
37280;SDS011;23169;41.804;12.596;2023-08-06T04:56:22;4.28;;;1.48;;
37280;SDS011;23169;41.804;12.596;2023-08-06T04:58:50;1.85;;;1.50;;
37280;SDS011;23169;41.804;12.596;2023-08-06T05:01:19;2.65;;;1.83;;
37280;SDS011;23169;41.804;12.596;2023-08-06T05:03:48;4.15;;;1.63;;
37280;SDS011;23169;41.804;12.596;2023-08-06T05:06:18;3.53;;;2.30;;
37280;SDS011;23169;41.804;12.596;2023-08-06T05:08:50;5.90;;;2.40;;
37280;SDS011;23169;41.804;12.596;2023-08-06T05:11:21;5.18;;;2.38;;
37280;SDS011;23169;41.804;12.596;2023-08-06T05:13:54;4.50;;;2.03;;
37280;SDS011;23169;41.804;12.596;2023-08-06T05:16:23;6.68;;;2.50;;
37280;SDS011;23169;41.804;12.596;2023-08-06T05:18:53;4.53;;;2.70;;
37280;SDS011;23169;41.804;12.596;2023-08-06T05:21:23;4.65;;;3.13;;
37280;SDS011;23169;41.804;12.596;2023-08-06T05:23:53;12.70;;;3.47;;
37280;SDS011;23169;41.804;12.596;2023-08-06T05:26:23;7.55;;;3.08;;
37280;SDS011;23169;41.804;12.596;2023-08-06T05:28:54;4.57;;;2.83;;
37280;SDS011;23169;41.804;12.596;2023-08-06T05:31:23;5.25;;;2.47;;
37280;SDS011;23169;41.804;12.596;2023-08-06T05:33:52;5.95;;;2.70;;
37280;SDS011;23169;41.804;12.596;2023-08-06T05:36:22;9.85;;;3.13;;
37280;SDS011;23169;41.804;12.596;2023-08-06T05:38:51;6.78;;;4.07;;
37280;SDS011;23169;41.804;12.596;2023-08-06T05:41:27;8.40;;;3.03;;
37280;SDS011;23169;41.804;12.596;2023-08-06T05:43:56;4.85;;;2.88;;
37280;SDS011;23169;41.804;12.596;2023-08-06T05:46:26;10.77;;;2.80;;
37280;SDS011;23169;41.804;12.596;2023-08-06T05:48:55;6.45;;;2.83;;
37280;SDS011;23169;41.804;12.596;2023-08-06T05:51:26;5.13;;;2.33;;
37280;SDS011;23169;41.804;12.596;2023-08-06T05:53:56;4.63;;;2.28;;
37280;SDS011;23169;41.804;12.596;2023-08-06T05:56:26;4.65;;;2.15;;
37280;SDS011;23169;41.804;12.596;2023-08-06T05:58:54;5.28;;;2.13;;
37280;SDS011;23169;41.804;12.596;2023-08-06T06:01:23;3.80;;;1.70;;
37280;SDS011;23169;41.804;12.596;2023-08-06T06:03:52;3.20;;;1.73;;
37280;SDS011;23169;41.804;12.596;2023-08-06T06:06:21;3.72;;;1.60;;
37280;SDS011;23169;41.804;12.596;2023-08-06T06:08:50;7.45;;;1.92;;
37280;SDS011;23169;41.804;12.596;2023-08-06T06:11:19;7.75;;;2.08;;
37280;SDS011;23169;41.804;12.596;2023-08-06T06:13:50;3.60;;;1.70;;
37280;SDS011;23169;41.804;12.596;2023-08-06T06:16:20;2.88;;;1.50;;
37280;SDS011;23169;41.804;12.596;2023-08-06T06:18:49;5.32;;;2.20;;
37280;SDS011;23169;41.804;12.596;2023-08-06T06:21:18;10.05;;;2.60;;
37280;SDS011;23169;41.804;12.596;2023-08-06T06:23:47;11.63;;;2.75;;
37280;SDS011;23169;41.804;12.596;2023-08-06T06:26:15;10.40;;;2.38;;
37280;SDS011;23169;41.804;12.596;2023-08-06T06:28:45;7.43;;;2.70;;
37280;SDS011;23169;41.804;12.596;2023-08-06T06:31:14;13.18;;;3.10;;
37280;SDS011;23169;41.804;12.596;2023-08-06T06:33:42;18.45;;;3.85;;
37280;SDS011;23169;41.804;12.596;2023-08-06T06:36:11;26.20;;;4.13;;
37280;SDS011;23169;41.804;12.596;2023-08-06T06:38:41;10.85;;;3.55;;
37280;SDS011;23169;41.804;12.596;2023-08-06T06:41:09;16.48;;;3.83;;
37280;SDS011;23169;41.804;12.596;2023-08-06T06:43:39;14.10;;;3.28;;
37280;SDS011;23169;41.804;12.596;2023-08-06T06:46:09;19.60;;;3.90;;
37280;SDS011;23169;41.804;12.596;2023-08-06T06:48:40;14.23;;;3.45;;
37280;SDS011;23169;41.804;12.596;2023-08-06T06:51:09;17.27;;;4.20;;
37280;SDS011;23169;41.804;12.596;2023-08-06T06:53:38;15.73;;;4.47;;
37280;SDS011;23169;41.804;12.596;2023-08-06T06:56:08;13.95;;;3.85;;
37280;SDS011;23169;41.804;12.596;2023-08-06T06:58:38;18.00;;;3.38;;
37280;SDS011;23169;41.804;12.596;2023-08-06T07:01:10;20.25;;;3.70;;
37280;SDS011;23169;41.804;12.596;2023-08-06T07:03:40;18.13;;;3.42;;
37280;SDS011;23169;41.804;12.596;2023-08-06T07:06:09;14.93;;;3.70;;
37280;SDS011;23169;41.804;12.596;2023-08-06T07:08:39;19.40;;;4.22;;
37280;SDS011;23169;41.804;12.596;2023-08-06T07:11:08;15.52;;;3.50;;
37280;SDS011;23169;41.804;12.596;2023-08-06T07:13:37;15.80;;;3.60;;
37280;SDS011;23169;41.804;12.596;2023-08-06T07:16:05;20.77;;;3.85;;
37280;SDS011;23169;41.804;12.596;2023-08-06T07:18:35;20.95;;;4.78;;
37280;SDS011;23169;41.804;12.596;2023-08-06T07:21:03;20.48;;;3.88;;
37280;SDS011;23169;41.804;12.596;2023-08-06T07:23:32;25.50;;;5.13;;
37280;SDS011;23169;41.804;12.596;2023-08-06T07:26:01;21.02;;;4.60;;
37280;SDS011;23169;41.804;12.596;2023-08-06T07:28:32;20.95;;;4.55;;
37280;SDS011;23169;41.804;12.596;2023-08-06T07:31:02;20.77;;;3.95;;
37280;SDS011;23169;41.804;12.596;2023-08-06T07:33:33;19.05;;;4.30;;
37280;SDS011;23169;41.804;12.596;2023-08-06T07:36:09;20.48;;;4.18;;
37280;SDS011;23169;41.804;12.596;2023-08-06T07:38:42;16.85;;;4.43;;
37280;SDS011;23169;41.804;12.596;2023-08-06T07:41:13;20.45;;;4.68;;
37280;SDS011;23169;41.804;12.596;2023-08-06T07:43:47;20.70;;;4.82;;
37280;SDS011;23169;41.804;12.596;2023-08-06T07:46:18;18.92;;;3.92;;
37280;SDS011;23169;41.804;12.596;2023-08-06T07:48:49;23.73;;;4.45;;
37280;SDS011;23169;41.804;12.596;2023-08-06T07:51:17;19.27;;;4.97;;
37280;SDS011;23169;41.804;12.596;2023-08-06T07:53:46;17.98;;;4.50;;
37280;SDS011;23169;41.804;12.596;2023-08-06T07:56:15;22.10;;;4.50;;
37280;SDS011;23169;41.804;12.596;2023-08-06T07:58:44;16.15;;;4.20;;
37280;SDS011;23169;41.804;12.596;2023-08-06T08:01:13;21.73;;;4.13;;
37280;SDS011;23169;41.804;12.596;2023-08-06T08:03:42;24.50;;;4.93;;
37280;SDS011;23169;41.804;12.596;2023-08-06T08:06:10;25.83;;;6.57;;
37280;SDS011;23169;41.804;12.596;2023-08-06T08:08:40;28.83;;;5.03;;
37280;SDS011;23169;41.804;12.596;2023-08-06T08:11:09;26.52;;;5.93;;
37280;SDS011;23169;41.804;12.596;2023-08-06T08:13:38;23.98;;;4.82;;
37280;SDS011;23169;41.804;12.596;2023-08-06T08:16:08;23.20;;;4.80;;
37280;SDS011;23169;41.804;12.596;2023-08-06T08:18:37;18.90;;;4.18;;
37280;SDS011;23169;41.804;12.596;2023-08-06T08:21:06;24.15;;;5.47;;
37280;SDS011;23169;41.804;12.596;2023-08-06T08:23:38;23.25;;;4.70;;
37280;SDS011;23169;41.804;12.596;2023-08-06T08:26:08;22.58;;;4.72;;
37280;SDS011;23169;41.804;12.596;2023-08-06T08:28:38;24.05;;;4.72;;
37280;SDS011;23169;41.804;12.596;2023-08-06T08:31:08;27.02;;;5.68;;
37280;SDS011;23169;41.804;12.596;2023-08-06T08:33:39;27.08;;;6.15;;
37280;SDS011;23169;41.804;12.596;2023-08-06T08:36:09;19.98;;;4.93;;
37280;SDS011;23169;41.804;12.596;2023-08-06T08:38:41;25.40;;;5.25;;
37280;SDS011;23169;41.804;12.596;2023-08-06T08:41:11;38.08;;;5.93;;
37280;SDS011;23169;41.804;12.596;2023-08-06T08:43:41;24.65;;;5.90;;
37280;SDS011;23169;41.804;12.596;2023-08-06T08:46:11;33.50;;;4.93;;
37280;SDS011;23169;41.804;12.596;2023-08-06T08:48:42;31.40;;;5.90;;
37280;SDS011;23169;41.804;12.596;2023-08-06T08:51:12;26.73;;;5.88;;
37280;SDS011;23169;41.804;12.596;2023-08-06T08:53:41;28.65;;;5.78;;
37280;SDS011;23169;41.804;12.596;2023-08-06T08:56:12;32.40;;;5.65;;
37280;SDS011;23169;41.804;12.596;2023-08-06T08:58:44;22.27;;;5.22;;
37280;SDS011;23169;41.804;12.596;2023-08-06T09:01:14;24.08;;;5.63;;
37280;SDS011;23169;41.804;12.596;2023-08-06T09:03:45;25.60;;;5.57;;
37280;SDS011;23169;41.804;12.596;2023-08-06T09:06:15;21.33;;;5.80;;
37280;SDS011;23169;41.804;12.596;2023-08-06T09:08:51;27.15;;;5.70;;
37280;SDS011;23169;41.804;12.596;2023-08-06T09:11:42;32.35;;;6.18;;
37280;SDS011;23169;41.804;12.596;2023-08-06T09:14:12;25.00;;;5.00;;
37280;SDS011;23169;41.804;12.596;2023-08-06T09:16:42;25.77;;;5.55;;
37280;SDS011;23169;41.804;12.596;2023-08-06T09:19:12;27.02;;;6.43;;
37280;SDS011;23169;41.804;12.596;2023-08-06T09:21:43;33.13;;;5.95;;
37280;SDS011;23169;41.804;12.596;2023-08-06T09:24:16;30.02;;;6.03;;
37280;SDS011;23169;41.804;12.596;2023-08-06T09:26:45;29.48;;;6.63;;
37280;SDS011;23169;41.804;12.596;2023-08-06T09:29:14;22.88;;;4.90;;
37280;SDS011;23169;41.804;12.596;2023-08-06T09:31:44;25.27;;;4.80;;
37280;SDS011;23169;41.804;12.596;2023-08-06T09:36:53;25.40;;;4.88;;
37280;SDS011;23169;41.804;12.596;2023-08-06T09:39:29;29.73;;;6.75;;
37280;SDS011;23169;41.804;12.596;2023-08-06T09:41:59;29.23;;;5.53;;
37280;SDS011;23169;41.804;12.596;2023-08-06T09:44:34;28.50;;;5.55;;
37280;SDS011;23169;41.804;12.596;2023-08-06T09:47:03;24.45;;;5.70;;
37280;SDS011;23169;41.804;12.596;2023-08-06T09:52:01;32.05;;;6.10;;
37280;SDS011;23169;41.804;12.596;2023-08-06T09:54:31;32.45;;;6.28;;
37280;SDS011;23169;41.804;12.596;2023-08-06T09:57:03;29.33;;;6.28;;
37280;SDS011;23169;41.804;12.596;2023-08-06T09:59:35;27.83;;;5.85;;
37280;SDS011;23169;41.804;12.596;2023-08-06T10:02:10;26.98;;;5.82;;
37280;SDS011;23169;41.804;12.596;2023-08-06T10:04:44;30.05;;;5.65;;
37280;SDS011;23169;41.804;12.596;2023-08-06T10:07:14;30.50;;;5.55;;
37280;SDS011;23169;41.804;12.596;2023-08-06T10:09:45;27.77;;;6.43;;
37280;SDS011;23169;41.804;12.596;2023-08-06T10:12:14;28.88;;;5.78;;
37280;SDS011;23169;41.804;12.596;2023-08-06T10:14:47;29.38;;;5.90;;
37280;SDS011;23169;41.804;12.596;2023-08-06T10:17:19;26.15;;;6.15;;
37280;SDS011;23169;41.804;12.596;2023-08-06T10:19:50;21.70;;;5.03;;
37280;SDS011;23169;41.804;12.596;2023-08-06T10:22:24;25.38;;;5.95;;
37280;SDS011;23169;41.804;12.596;2023-08-06T10:24:55;28.38;;;6.35;;
37280;SDS011;23169;41.804;12.596;2023-08-06T10:32:54;26.30;;;6.18;;
37280;SDS011;23169;41.804;12.596;2023-08-06T10:35:40;23.35;;;5.68;;
37280;SDS011;23169;41.804;12.596;2023-08-06T10:38:25;21.48;;;4.90;;
37280;SDS011;23169;41.804;12.596;2023-08-06T10:43:31;27.15;;;6.15;;
37280;SDS011;23169;41.804;12.596;2023-08-06T10:46:02;19.27;;;5.15;;
37280;SDS011;23169;41.804;12.596;2023-08-06T10:48:41;27.77;;;5.90;;
37280;SDS011;23169;41.804;12.596;2023-08-06T10:51:14;27.50;;;5.68;;
37280;SDS011;23169;41.804;12.596;2023-08-06T10:53:46;24.25;;;5.38;;
37280;SDS011;23169;41.804;12.596;2023-08-06T10:56:17;30.08;;;5.40;;
37280;SDS011;23169;41.804;12.596;2023-08-06T10:58:54;21.60;;;5.05;;
37280;SDS011;23169;41.804;12.596;2023-08-06T11:01:26;27.48;;;5.95;;
37280;SDS011;23169;41.804;12.596;2023-08-06T11:04:00;24.80;;;4.65;;
37280;SDS011;23169;41.804;12.596;2023-08-06T11:06:32;30.83;;;6.75;;
37280;SDS011;23169;41.804;12.596;2023-08-06T11:09:02;22.55;;;5.18;;
37280;SDS011;23169;41.804;12.596;2023-08-06T11:11:31;25.55;;;5.72;;
37280;SDS011;23169;41.804;12.596;2023-08-06T11:14:01;24.88;;;4.90;;
37280;SDS011;23169;41.804;12.596;2023-08-06T11:16:33;26.75;;;5.53;;
37280;SDS011;23169;41.804;12.596;2023-08-06T11:19:02;25.98;;;4.90;;
37280;SDS011;23169;41.804;12.596;2023-08-06T11:21:32;23.13;;;5.55;;
37280;SDS011;23169;41.804;12.596;2023-08-06T11:24:03;28.48;;;5.72;;
37280;SDS011;23169;41.804;12.596;2023-08-06T11:26:33;27.27;;;5.28;;
37280;SDS011;23169;41.804;12.596;2023-08-06T11:29:06;21.67;;;5.07;;
37280;SDS011;23169;41.804;12.596;2023-08-06T11:31:37;20.58;;;5.07;;
37280;SDS011;23169;41.804;12.596;2023-08-06T11:34:08;23.35;;;5.50;;
37280;SDS011;23169;41.804;12.596;2023-08-06T11:36:40;21.67;;;5.15;;
37280;SDS011;23169;41.804;12.596;2023-08-06T11:39:10;30.25;;;6.00;;
37280;SDS011;23169;41.804;12.596;2023-08-06T11:41:40;22.50;;;5.28;;
37280;SDS011;23169;41.804;12.596;2023-08-06T11:44:10;19.75;;;5.35;;
37280;SDS011;23169;41.804;12.596;2023-08-06T11:46:52;22.98;;;4.53;;
37280;SDS011;23169;41.804;12.596;2023-08-06T11:52:16;25.83;;;5.65;;
37280;SDS011;23169;41.804;12.596;2023-08-06T11:54:47;22.20;;;5.10;;
37280;SDS011;23169;41.804;12.596;2023-08-06T11:57:36;24.13;;;4.65;;
37280;SDS011;23169;41.804;12.596;2023-08-06T12:00:09;26.13;;;4.68;;
37280;SDS011;23169;41.804;12.596;2023-08-06T12:02:40;25.30;;;5.20;;
37280;SDS011;23169;41.804;12.596;2023-08-06T12:05:11;24.80;;;5.88;;
37280;SDS011;23169;41.804;12.596;2023-08-06T12:07:45;21.88;;;4.80;;
37280;SDS011;23169;41.804;12.596;2023-08-06T12:10:19;24.27;;;4.85;;
37280;SDS011;23169;41.804;12.596;2023-08-06T12:12:50;22.65;;;5.53;;
37280;SDS011;23169;41.804;12.596;2023-08-06T12:15:20;24.60;;;5.45;;
37280;SDS011;23169;41.804;12.596;2023-08-06T12:17:49;21.73;;;4.95;;
37280;SDS011;23169;41.804;12.596;2023-08-06T12:20:18;23.08;;;5.45;;
37280;SDS011;23169;41.804;12.596;2023-08-06T12:22:46;17.20;;;4.45;;
37280;SDS011;23169;41.804;12.596;2023-08-06T12:25:15;21.77;;;5.30;;
37280;SDS011;23169;41.804;12.596;2023-08-06T12:27:44;23.10;;;5.20;;
37280;SDS011;23169;41.804;12.596;2023-08-06T12:30:13;23.40;;;5.55;;
37280;SDS011;23169;41.804;12.596;2023-08-06T12:32:43;25.90;;;4.88;;
37280;SDS011;23169;41.804;12.596;2023-08-06T12:35:12;21.42;;;4.72;;
37280;SDS011;23169;41.804;12.596;2023-08-06T12:37:42;22.77;;;4.95;;
37280;SDS011;23169;41.804;12.596;2023-08-06T12:40:12;27.33;;;5.38;;
37280;SDS011;23169;41.804;12.596;2023-08-06T12:42:41;24.67;;;5.25;;
37280;SDS011;23169;41.804;12.596;2023-08-06T12:45:10;19.88;;;4.30;;
37280;SDS011;23169;41.804;12.596;2023-08-06T12:47:40;20.02;;;4.97;;
37280;SDS011;23169;41.804;12.596;2023-08-06T12:50:09;22.67;;;4.50;;
37280;SDS011;23169;41.804;12.596;2023-08-06T12:52:40;19.80;;;4.68;;
37280;SDS011;23169;41.804;12.596;2023-08-06T12:55:09;20.75;;;4.75;;
37280;SDS011;23169;41.804;12.596;2023-08-06T12:57:37;20.75;;;4.43;;
37280;SDS011;23169;41.804;12.596;2023-08-06T13:00:08;22.83;;;4.85;;
37280;SDS011;23169;41.804;12.596;2023-08-06T13:02:37;16.65;;;4.47;;
37280;SDS011;23169;41.804;12.596;2023-08-06T13:05:06;25.20;;;5.70;;
37280;SDS011;23169;41.804;12.596;2023-08-06T13:07:35;17.58;;;4.38;;
37280;SDS011;23169;41.804;12.596;2023-08-06T13:10:04;22.77;;;4.40;;
37280;SDS011;23169;41.804;12.596;2023-08-06T13:12:33;16.63;;;4.20;;
37280;SDS011;23169;41.804;12.596;2023-08-06T13:15:02;16.90;;;4.25;;
37280;SDS011;23169;41.804;12.596;2023-08-06T13:17:32;19.70;;;4.82;;
37280;SDS011;23169;41.804;12.596;2023-08-06T13:20:00;23.02;;;5.43;;
37280;SDS011;23169;41.804;12.596;2023-08-06T13:22:30;16.48;;;4.30;;
37280;SDS011;23169;41.804;12.596;2023-08-06T13:25:01;20.15;;;4.70;;
37280;SDS011;23169;41.804;12.596;2023-08-06T13:27:31;20.25;;;4.63;;
37280;SDS011;23169;41.804;12.596;2023-08-06T13:30:01;21.83;;;5.10;;
37280;SDS011;23169;41.804;12.596;2023-08-06T13:32:33;18.27;;;4.10;;
37280;SDS011;23169;41.804;12.596;2023-08-06T13:35:05;19.27;;;3.97;;
37280;SDS011;23169;41.804;12.596;2023-08-06T13:37:35;18.10;;;4.25;;
37280;SDS011;23169;41.804;12.596;2023-08-06T13:40:03;23.73;;;4.50;;
37280;SDS011;23169;41.804;12.596;2023-08-06T13:42:34;18.02;;;4.25;;
37280;SDS011;23169;41.804;12.596;2023-08-06T13:45:05;27.20;;;4.95;;
37280;SDS011;23169;41.804;12.596;2023-08-06T13:47:36;21.73;;;4.65;;
37280;SDS011;23169;41.804;12.596;2023-08-06T13:50:07;23.40;;;4.50;;
37280;SDS011;23169;41.804;12.596;2023-08-06T13:52:39;21.58;;;4.18;;
37280;SDS011;23169;41.804;12.596;2023-08-06T13:55:10;18.73;;;4.88;;
37280;SDS011;23169;41.804;12.596;2023-08-06T13:57:41;23.33;;;4.40;;
37280;SDS011;23169;41.804;12.596;2023-08-06T14:00:11;24.58;;;5.78;;
37280;SDS011;23169;41.804;12.596;2023-08-06T14:02:40;19.30;;;4.57;;
37280;SDS011;23169;41.804;12.596;2023-08-06T14:05:13;21.08;;;4.80;;
37280;SDS011;23169;41.804;12.596;2023-08-06T14:07:44;26.85;;;6.30;;
37280;SDS011;23169;41.804;12.596;2023-08-06T14:10:14;18.17;;;4.15;;
37280;SDS011;23169;41.804;12.596;2023-08-06T14:12:44;20.67;;;4.32;;
37280;SDS011;23169;41.804;12.596;2023-08-06T14:15:13;20.13;;;5.47;;
37280;SDS011;23169;41.804;12.596;2023-08-06T14:17:43;21.38;;;4.70;;
37280;SDS011;23169;41.804;12.596;2023-08-06T14:20:11;24.23;;;4.72;;
37280;SDS011;23169;41.804;12.596;2023-08-06T14:22:41;21.30;;;4.38;;
37280;SDS011;23169;41.804;12.596;2023-08-06T14:25:11;20.33;;;4.50;;
37280;SDS011;23169;41.804;12.596;2023-08-06T14:27:40;24.92;;;5.07;;
37280;SDS011;23169;41.804;12.596;2023-08-06T14:30:09;24.38;;;4.18;;
37280;SDS011;23169;41.804;12.596;2023-08-06T14:32:39;20.67;;;4.68;;
37280;SDS011;23169;41.804;12.596;2023-08-06T14:35:08;19.55;;;5.45;;
37280;SDS011;23169;41.804;12.596;2023-08-06T14:37:37;20.98;;;4.38;;
37280;SDS011;23169;41.804;12.596;2023-08-06T14:40:07;23.70;;;5.63;;
37280;SDS011;23169;41.804;12.596;2023-08-06T14:42:37;21.75;;;4.78;;
37280;SDS011;23169;41.804;12.596;2023-08-06T14:45:06;20.80;;;4.63;;
37280;SDS011;23169;41.804;12.596;2023-08-06T14:47:36;17.35;;;4.45;;
37280;SDS011;23169;41.804;12.596;2023-08-06T14:50:04;24.70;;;4.40;;
37280;SDS011;23169;41.804;12.596;2023-08-06T14:52:34;19.33;;;4.13;;
37280;SDS011;23169;41.804;12.596;2023-08-06T14:55:03;17.10;;;4.10;;
37280;SDS011;23169;41.804;12.596;2023-08-06T14:57:31;23.40;;;4.53;;
37280;SDS011;23169;41.804;12.596;2023-08-06T15:00:01;18.98;;;4.38;;
37280;SDS011;23169;41.804;12.596;2023-08-06T15:02:31;23.88;;;4.78;;
37280;SDS011;23169;41.804;12.596;2023-08-06T15:05:00;21.17;;;4.55;;
37280;SDS011;23169;41.804;12.596;2023-08-06T15:07:29;19.30;;;4.72;;